sensor_id;sensor_type;location;lat;lon;timestamp;P1;durP1;ratioP1;P2;durP2;ratioP2
68888;SDS011;55930;47.412;8.790;2023-09-30T00:01:13;34.45;;;17.15;;
68888;SDS011;55930;47.412;8.790;2023-09-30T00:04:34;32.45;;;16.33;;
68888;SDS011;55930;47.412;8.790;2023-09-30T00:11:18;29.60;;;14.82;;
68888;SDS011;55930;47.412;8.790;2023-09-30T00:17:59;31.15;;;16.17;;
68888;SDS011;55930;47.412;8.790;2023-09-30T00:24:39;31.80;;;15.50;;
68888;SDS011;55930;47.412;8.790;2023-09-30T00:28:02;32.13;;;15.30;;
68888;SDS011;55930;47.412;8.790;2023-09-30T00:34:43;32.93;;;14.90;;
68888;SDS011;55930;47.412;8.790;2023-09-30T00:38:04;29.65;;;15.18;;
68888;SDS011;55930;47.412;8.790;2023-09-30T00:44:45;34.90;;;15.80;;
68888;SDS011;55930;47.412;8.790;2023-09-30T00:51:27;33.43;;;15.83;;
68888;SDS011;55930;47.412;8.790;2023-09-30T00:58:08;31.60;;;15.45;;
68888;SDS011;55930;47.412;8.790;2023-09-30T01:04:50;31.92;;;16.15;;
68888;SDS011;55930;47.412;8.790;2023-09-30T01:11:30;30.70;;;15.33;;
68888;SDS011;55930;47.412;8.790;2023-09-30T01:18:17;29.08;;;14.98;;
68888;SDS011;55930;47.412;8.790;2023-09-30T01:21:37;30.15;;;15.45;;
68888;SDS011;55930;47.412;8.790;2023-09-30T01:28:18;27.50;;;14.27;;
68888;SDS011;55930;47.412;8.790;2023-09-30T01:34:59;28.30;;;14.57;;
68888;SDS011;55930;47.412;8.790;2023-09-30T01:41:40;31.27;;;15.47;;
68888;SDS011;55930;47.412;8.790;2023-09-30T01:45:01;28.67;;;14.30;;
68888;SDS011;55930;47.412;8.790;2023-09-30T01:48:24;26.08;;;13.38;;
68888;SDS011;55930;47.412;8.790;2023-09-30T01:51:44;26.65;;;12.73;;
68888;SDS011;55930;47.412;8.790;2023-09-30T01:55:05;26.52;;;12.45;;
68888;SDS011;55930;47.412;8.790;2023-09-30T01:58:26;27.98;;;12.30;;
68888;SDS011;55930;47.412;8.790;2023-09-30T02:01:47;29.90;;;12.87;;
68888;SDS011;55930;47.412;8.790;2023-09-30T02:05:09;22.50;;;10.95;;
68888;SDS011;55930;47.412;8.790;2023-09-30T02:08:29;23.50;;;10.32;;
68888;SDS011;55930;47.412;8.790;2023-09-30T02:15:10;22.17;;;10.90;;
68888;SDS011;55930;47.412;8.790;2023-09-30T02:18:31;22.48;;;10.82;;
68888;SDS011;55930;47.412;8.790;2023-09-30T02:21:52;26.08;;;11.77;;
68888;SDS011;55930;47.412;8.790;2023-09-30T02:25:13;25.40;;;12.25;;
68888;SDS011;55930;47.412;8.790;2023-09-30T02:28:34;21.20;;;10.30;;
68888;SDS011;55930;47.412;8.790;2023-09-30T02:35:15;18.53;;;9.33;;
68888;SDS011;55930;47.412;8.790;2023-09-30T02:38:35;22.75;;;10.52;;
68888;SDS011;55930;47.412;8.790;2023-09-30T02:41:59;28.52;;;11.48;;
68888;SDS011;55930;47.412;8.790;2023-09-30T02:45:19;21.85;;;10.23;;
68888;SDS011;55930;47.412;8.790;2023-09-30T02:48:39;24.52;;;12.20;;
68888;SDS011;55930;47.412;8.790;2023-09-30T02:55:20;26.92;;;13.95;;
68888;SDS011;55930;47.412;8.790;2023-09-30T02:58:41;27.40;;;13.00;;
68888;SDS011;55930;47.412;8.790;2023-09-30T03:05:23;26.15;;;13.40;;
68888;SDS011;55930;47.412;8.790;2023-09-30T03:08:43;23.77;;;13.27;;
68888;SDS011;55930;47.412;8.790;2023-09-30T03:12:04;28.10;;;12.93;;
68888;SDS011;55930;47.412;8.790;2023-09-30T03:15:24;27.02;;;13.00;;
68888;SDS011;55930;47.412;8.790;2023-09-30T03:18:45;29.80;;;14.60;;
68888;SDS011;55930;47.412;8.790;2023-09-30T03:22:05;27.33;;;14.30;;
68888;SDS011;55930;47.412;8.790;2023-09-30T03:25:30;30.48;;;13.93;;
68888;SDS011;55930;47.412;8.790;2023-09-30T03:28:51;28.35;;;14.27;;
68888;SDS011;55930;47.412;8.790;2023-09-30T03:32:11;26.53;;;13.60;;
68888;SDS011;55930;47.412;8.790;2023-09-30T03:38:52;29.30;;;13.30;;
68888;SDS011;55930;47.412;8.790;2023-09-30T03:42:19;24.58;;;12.55;;
68888;SDS011;55930;47.412;8.790;2023-09-30T03:45:42;28.83;;;13.75;;
68888;SDS011;55930;47.412;8.790;2023-09-30T03:49:02;27.58;;;12.43;;
68888;SDS011;55930;47.412;8.790;2023-09-30T03:52:23;28.10;;;13.50;;
68888;SDS011;55930;47.412;8.790;2023-09-30T03:55:45;29.02;;;13.63;;
68888;SDS011;55930;47.412;8.790;2023-09-30T03:59:06;27.00;;;14.27;;
68888;SDS011;55930;47.412;8.790;2023-09-30T04:05:47;28.33;;;12.57;;
68888;SDS011;55930;47.412;8.790;2023-09-30T04:09:10;28.60;;;13.88;;
68888;SDS011;55930;47.412;8.790;2023-09-30T04:12:31;31.73;;;14.07;;
68888;SDS011;55930;47.412;8.790;2023-09-30T04:15:52;25.38;;;13.98;;
68888;SDS011;55930;47.412;8.790;2023-09-30T04:19:13;23.70;;;12.23;;
68888;SDS011;55930;47.412;8.790;2023-09-30T04:22:33;27.05;;;13.23;;
68888;SDS011;55930;47.412;8.790;2023-09-30T04:25:55;31.30;;;13.93;;
68888;SDS011;55930;47.412;8.790;2023-09-30T04:29:17;25.65;;;13.00;;
68888;SDS011;55930;47.412;8.790;2023-09-30T04:32:38;26.35;;;12.95;;
68888;SDS011;55930;47.412;8.790;2023-09-30T04:35:58;27.77;;;13.70;;
68888;SDS011;55930;47.412;8.790;2023-09-30T04:39:19;29.73;;;14.27;;
68888;SDS011;55930;47.412;8.790;2023-09-30T04:42:42;25.35;;;12.85;;
68888;SDS011;55930;47.412;8.790;2023-09-30T04:46:04;29.27;;;15.02;;
68888;SDS011;55930;47.412;8.790;2023-09-30T04:49:25;28.55;;;13.02;;
68888;SDS011;55930;47.412;8.790;2023-09-30T04:52:48;29.42;;;13.20;;
68888;SDS011;55930;47.412;8.790;2023-09-30T04:56:08;25.17;;;12.63;;
68888;SDS011;55930;47.412;8.790;2023-09-30T04:59:30;27.80;;;13.30;;
68888;SDS011;55930;47.412;8.790;2023-09-30T05:02:51;27.77;;;13.10;;
68888;SDS011;55930;47.412;8.790;2023-09-30T05:06:14;31.05;;;14.20;;
68888;SDS011;55930;47.412;8.790;2023-09-30T05:09:35;28.85;;;14.18;;
68888;SDS011;55930;47.412;8.790;2023-09-30T05:12:56;28.20;;;15.75;;
68888;SDS011;55930;47.412;8.790;2023-09-30T05:19:38;31.03;;;14.90;;
68888;SDS011;55930;47.412;8.790;2023-09-30T05:22:58;27.63;;;14.80;;
68888;SDS011;55930;47.412;8.790;2023-09-30T05:26:18;27.30;;;13.13;;
68888;SDS011;55930;47.412;8.790;2023-09-30T05:29:39;25.17;;;12.50;;
68888;SDS011;55930;47.412;8.790;2023-09-30T05:33:00;28.37;;;13.80;;
68888;SDS011;55930;47.412;8.790;2023-09-30T05:39:41;28.13;;;13.10;;
68888;SDS011;55930;47.412;8.790;2023-09-30T05:43:01;29.08;;;13.45;;
68888;SDS011;55930;47.412;8.790;2023-09-30T05:46:23;23.77;;;12.38;;
68888;SDS011;55930;47.412;8.790;2023-09-30T05:49:43;26.60;;;12.52;;
68888;SDS011;55930;47.412;8.790;2023-09-30T05:53:03;23.03;;;12.50;;
68888;SDS011;55930;47.412;8.790;2023-09-30T05:56:26;26.35;;;12.02;;
68888;SDS011;55930;47.412;8.790;2023-09-30T05:59:47;25.87;;;12.60;;
68888;SDS011;55930;47.412;8.790;2023-09-30T06:03:07;26.40;;;12.90;;
68888;SDS011;55930;47.412;8.790;2023-09-30T06:09:49;24.73;;;13.13;;
68888;SDS011;55930;47.412;8.790;2023-09-30T06:13:14;26.15;;;12.88;;
68888;SDS011;55930;47.412;8.790;2023-09-30T06:16:35;22.67;;;12.45;;
68888;SDS011;55930;47.412;8.790;2023-09-30T06:19:56;24.45;;;11.07;;
68888;SDS011;55930;47.412;8.790;2023-09-30T06:26:37;25.02;;;10.40;;
68888;SDS011;55930;47.412;8.790;2023-09-30T06:29:57;27.97;;;11.57;;
68888;SDS011;55930;47.412;8.790;2023-09-30T06:33:17;24.00;;;11.60;;
68888;SDS011;55930;47.412;8.790;2023-09-30T06:36:41;21.27;;;11.27;;
68888;SDS011;55930;47.412;8.790;2023-09-30T06:40:01;18.38;;;10.13;;
68888;SDS011;55930;47.412;8.790;2023-09-30T06:43:24;21.48;;;10.70;;
68888;SDS011;55930;47.412;8.790;2023-09-30T06:46:44;20.55;;;10.18;;
68888;SDS011;55930;47.412;8.790;2023-09-30T06:53:31;21.33;;;10.23;;
68888;SDS011;55930;47.412;8.790;2023-09-30T06:56:53;20.60;;;10.02;;
68888;SDS011;55930;47.412;8.790;2023-09-30T07:00:14;20.95;;;10.40;;
68888;SDS011;55930;47.412;8.790;2023-09-30T07:03:34;20.40;;;10.45;;
68888;SDS011;55930;47.412;8.790;2023-09-30T07:10:15;22.27;;;10.73;;
68888;SDS011;55930;47.412;8.790;2023-09-30T07:13:35;21.77;;;10.97;;
68888;SDS011;55930;47.412;8.790;2023-09-30T07:16:56;20.52;;;11.00;;
68888;SDS011;55930;47.412;8.790;2023-09-30T07:20:17;23.20;;;10.45;;
68888;SDS011;55930;47.412;8.790;2023-09-30T07:23:39;19.25;;;9.98;;
68888;SDS011;55930;47.412;8.790;2023-09-30T07:27:01;20.52;;;10.23;;
68888;SDS011;55930;47.412;8.790;2023-09-30T07:33:42;20.33;;;9.30;;
68888;SDS011;55930;47.412;8.790;2023-09-30T07:40:23;15.13;;;8.02;;
68888;SDS011;55930;47.412;8.790;2023-09-30T07:47:04;17.45;;;8.52;;
68888;SDS011;55930;47.412;8.790;2023-09-30T07:50:32;15.95;;;8.15;;
68888;SDS011;55930;47.412;8.790;2023-09-30T07:53:54;15.23;;;8.85;;
68888;SDS011;55930;47.412;8.790;2023-09-30T08:00:34;17.00;;;9.23;;
68888;SDS011;55930;47.412;8.790;2023-09-30T08:07:17;17.95;;;9.48;;
68888;SDS011;55930;47.412;8.790;2023-09-30T08:13:58;18.53;;;9.27;;
68888;SDS011;55930;47.412;8.790;2023-09-30T08:20:39;19.87;;;9.57;;
68888;SDS011;55930;47.412;8.790;2023-09-30T08:23:59;20.00;;;8.57;;
68888;SDS011;55930;47.412;8.790;2023-09-30T08:27:22;18.95;;;8.90;;
68888;SDS011;55930;47.412;8.790;2023-09-30T08:30:44;14.80;;;7.65;;
68888;SDS011;55930;47.412;8.790;2023-09-30T08:34:04;16.00;;;7.97;;
68888;SDS011;55930;47.412;8.790;2023-09-30T08:37:25;14.45;;;7.97;;
68888;SDS011;55930;47.412;8.790;2023-09-30T08:40:45;17.05;;;7.95;;
68888;SDS011;55930;47.412;8.790;2023-09-30T08:44:07;12.63;;;7.13;;
68888;SDS011;55930;47.412;8.790;2023-09-30T08:47:28;16.23;;;8.07;;
68888;SDS011;55930;47.412;8.790;2023-09-30T08:50:51;14.45;;;7.13;;
68888;SDS011;55930;47.412;8.790;2023-09-30T08:54:13;15.82;;;8.40;;
68888;SDS011;55930;47.412;8.790;2023-09-30T08:57:35;14.90;;;7.82;;
68888;SDS011;55930;47.412;8.790;2023-09-30T09:00:59;15.70;;;7.75;;
68888;SDS011;55930;47.412;8.790;2023-09-30T09:04:19;18.75;;;9.25;;
68888;SDS011;55930;47.412;8.790;2023-09-30T09:07:40;14.85;;;8.93;;
68888;SDS011;55930;47.412;8.790;2023-09-30T09:11:02;15.75;;;8.02;;
68888;SDS011;55930;47.412;8.790;2023-09-30T09:14:38;16.23;;;8.25;;
68888;SDS011;55930;47.412;8.790;2023-09-30T09:18:00;13.77;;;8.02;;
68888;SDS011;55930;47.412;8.790;2023-09-30T09:21:21;14.52;;;8.60;;
68888;SDS011;55930;47.412;8.790;2023-09-30T09:24:50;18.65;;;9.32;;
68888;SDS011;55930;47.412;8.790;2023-09-30T09:28:11;14.68;;;7.75;;
68888;SDS011;55930;47.412;8.790;2023-09-30T09:31:35;13.85;;;7.90;;
68888;SDS011;55930;47.412;8.790;2023-09-30T09:35:00;13.45;;;8.32;;
68888;SDS011;55930;47.412;8.790;2023-09-30T09:38:21;14.00;;;8.65;;
68888;SDS011;55930;47.412;8.790;2023-09-30T09:41:51;15.32;;;8.32;;
68888;SDS011;55930;47.412;8.790;2023-09-30T09:45:13;14.70;;;9.00;;
68888;SDS011;55930;47.412;8.790;2023-09-30T09:48:35;16.90;;;9.02;;
68888;SDS011;55930;47.412;8.790;2023-09-30T09:51:56;15.15;;;8.95;;
68888;SDS011;55930;47.412;8.790;2023-09-30T09:55:20;15.43;;;8.98;;
68888;SDS011;55930;47.412;8.790;2023-09-30T09:58:42;15.02;;;8.55;;
68888;SDS011;55930;47.412;8.790;2023-09-30T10:02:04;15.52;;;8.70;;
68888;SDS011;55930;47.412;8.790;2023-09-30T10:05:35;16.88;;;9.55;;
68888;SDS011;55930;47.412;8.790;2023-09-30T10:08:59;15.05;;;9.07;;
68888;SDS011;55930;47.412;8.790;2023-09-30T10:12:22;20.02;;;10.63;;
68888;SDS011;55930;47.412;8.790;2023-09-30T10:15:43;19.25;;;10.73;;
68888;SDS011;55930;47.412;8.790;2023-09-30T10:19:10;21.15;;;11.15;;
68888;SDS011;55930;47.412;8.790;2023-09-30T10:22:32;16.73;;;9.95;;
68888;SDS011;55930;47.412;8.790;2023-09-30T10:25:54;17.42;;;10.50;;
68888;SDS011;55930;47.412;8.790;2023-09-30T10:29:40;17.83;;;10.18;;
68888;SDS011;55930;47.412;8.790;2023-09-30T10:36:29;19.10;;;10.43;;
68888;SDS011;55930;47.412;8.790;2023-09-30T10:39:56;17.88;;;9.15;;
68888;SDS011;55930;47.412;8.790;2023-09-30T10:43:31;17.13;;;10.48;;
68888;SDS011;55930;47.412;8.790;2023-09-30T10:46:53;17.88;;;10.15;;
68888;SDS011;55930;47.412;8.790;2023-09-30T10:54:10;18.02;;;10.57;;
68888;SDS011;55930;47.412;8.790;2023-09-30T10:57:35;17.80;;;11.23;;
68888;SDS011;55930;47.412;8.790;2023-09-30T11:00:55;18.13;;;10.88;;
68888;SDS011;55930;47.412;8.790;2023-09-30T11:04:16;17.70;;;10.00;;
68888;SDS011;55930;47.412;8.790;2023-09-30T11:07:37;18.92;;;11.00;;
68888;SDS011;55930;47.412;8.790;2023-09-30T11:11:05;16.67;;;10.27;;
68888;SDS011;55930;47.412;8.790;2023-09-30T11:14:26;16.52;;;10.68;;
68888;SDS011;55930;47.412;8.790;2023-09-30T11:17:48;16.75;;;10.70;;
68888;SDS011;55930;47.412;8.790;2023-09-30T11:21:11;16.63;;;10.25;;
68888;SDS011;55930;47.412;8.790;2023-09-30T11:24:36;16.30;;;10.38;;
68888;SDS011;55930;47.412;8.790;2023-09-30T11:28:12;14.63;;;9.90;;
68888;SDS011;55930;47.412;8.790;2023-09-30T11:31:39;17.27;;;10.03;;
68888;SDS011;55930;47.412;8.790;2023-09-30T11:35:01;19.25;;;10.95;;
68888;SDS011;55930;47.412;8.790;2023-09-30T11:38:21;17.33;;;10.02;;
68888;SDS011;55930;47.412;8.790;2023-09-30T11:41:45;17.40;;;10.40;;
68888;SDS011;55930;47.412;8.790;2023-09-30T11:45:21;23.00;;;10.60;;
68888;SDS011;55930;47.412;8.790;2023-09-30T11:48:55;18.52;;;10.40;;
68888;SDS011;55930;47.412;8.790;2023-09-30T11:52:25;16.55;;;10.23;;
68888;SDS011;55930;47.412;8.790;2023-09-30T11:55:46;18.20;;;10.95;;
68888;SDS011;55930;47.412;8.790;2023-09-30T11:59:09;17.05;;;10.75;;
68888;SDS011;55930;47.412;8.790;2023-09-30T12:02:35;16.77;;;10.82;;
68888;SDS011;55930;47.412;8.790;2023-09-30T12:06:00;18.30;;;11.52;;
68888;SDS011;55930;47.412;8.790;2023-09-30T12:09:20;17.95;;;10.13;;
68888;SDS011;55930;47.412;8.790;2023-09-30T12:12:46;15.38;;;10.27;;
68888;SDS011;55930;47.412;8.790;2023-09-30T12:16:07;14.13;;;9.50;;
68888;SDS011;55930;47.412;8.790;2023-09-30T12:19:28;18.48;;;10.23;;
68888;SDS011;55930;47.412;8.790;2023-09-30T12:22:49;16.20;;;9.93;;
68888;SDS011;55930;47.412;8.790;2023-09-30T12:26:11;14.60;;;9.48;;
68888;SDS011;55930;47.412;8.790;2023-09-30T12:29:32;16.70;;;9.95;;
68888;SDS011;55930;47.412;8.790;2023-09-30T12:32:52;16.80;;;10.43;;
68888;SDS011;55930;47.412;8.790;2023-09-30T12:36:15;16.10;;;10.10;;
68888;SDS011;55930;47.412;8.790;2023-09-30T12:39:35;16.95;;;10.55;;
68888;SDS011;55930;47.412;8.790;2023-09-30T12:42:56;18.90;;;10.73;;
68888;SDS011;55930;47.412;8.790;2023-09-30T12:46:17;16.45;;;10.35;;
68888;SDS011;55930;47.412;8.790;2023-09-30T12:49:38;17.60;;;10.35;;
68888;SDS011;55930;47.412;8.790;2023-09-30T12:52:58;17.08;;;10.10;;
68888;SDS011;55930;47.412;8.790;2023-09-30T12:56:21;15.23;;;10.18;;
68888;SDS011;55930;47.412;8.790;2023-09-30T12:59:46;22.02;;;9.57;;
68888;SDS011;55930;47.412;8.790;2023-09-30T13:03:09;17.75;;;10.10;;
68888;SDS011;55930;47.412;8.790;2023-09-30T13:06:29;15.95;;;9.82;;
68888;SDS011;55930;47.412;8.790;2023-09-30T13:09:52;15.30;;;9.45;;
68888;SDS011;55930;47.412;8.790;2023-09-30T13:13:12;18.08;;;9.98;;
68888;SDS011;55930;47.412;8.790;2023-09-30T13:16:33;16.20;;;9.82;;
68888;SDS011;55930;47.412;8.790;2023-09-30T13:19:54;15.02;;;9.25;;
68888;SDS011;55930;47.412;8.790;2023-09-30T13:23:15;16.88;;;9.77;;
68888;SDS011;55930;47.412;8.790;2023-09-30T13:26:35;17.65;;;10.07;;
68888;SDS011;55930;47.412;8.790;2023-09-30T13:29:55;18.05;;;9.25;;
68888;SDS011;55930;47.412;8.790;2023-09-30T13:33:18;15.65;;;8.98;;
68888;SDS011;55930;47.412;8.790;2023-09-30T13:36:41;14.10;;;9.20;;
68888;SDS011;55930;47.412;8.790;2023-09-30T13:40:01;16.35;;;8.73;;
68888;SDS011;55930;47.412;8.790;2023-09-30T13:43:28;15.95;;;9.80;;
68888;SDS011;55930;47.412;8.790;2023-09-30T13:46:48;17.15;;;9.80;;
68888;SDS011;55930;47.412;8.790;2023-09-30T13:50:09;15.50;;;9.55;;
68888;SDS011;55930;47.412;8.790;2023-09-30T13:53:30;15.32;;;9.30;;
68888;SDS011;55930;47.412;8.790;2023-09-30T13:56:50;15.30;;;9.63;;
68888;SDS011;55930;47.412;8.790;2023-09-30T14:00:10;15.35;;;8.52;;
68888;SDS011;55930;47.412;8.790;2023-09-30T14:03:32;14.52;;;8.95;;
68888;SDS011;55930;47.412;8.790;2023-09-30T14:06:53;17.80;;;9.50;;
68888;SDS011;55930;47.412;8.790;2023-09-30T14:10:14;15.30;;;9.27;;
68888;SDS011;55930;47.412;8.790;2023-09-30T14:13:34;16.13;;;9.65;;
68888;SDS011;55930;47.412;8.790;2023-09-30T14:16:55;17.17;;;10.00;;
68888;SDS011;55930;47.412;8.790;2023-09-30T14:20:16;14.93;;;9.30;;
68888;SDS011;55930;47.412;8.790;2023-09-30T14:23:36;15.57;;;8.48;;
68888;SDS011;55930;47.412;8.790;2023-09-30T14:26:56;15.65;;;8.80;;
68888;SDS011;55930;47.412;8.790;2023-09-30T14:30:17;15.50;;;9.25;;
68888;SDS011;55930;47.412;8.790;2023-09-30T14:33:37;15.50;;;9.07;;
68888;SDS011;55930;47.412;8.790;2023-09-30T14:36:58;20.63;;;10.25;;
68888;SDS011;55930;47.412;8.790;2023-09-30T14:40:18;15.73;;;8.85;;
68888;SDS011;55930;47.412;8.790;2023-09-30T14:43:39;17.38;;;10.02;;
68888;SDS011;55930;47.412;8.790;2023-09-30T14:46:59;17.85;;;9.35;;
68888;SDS011;55930;47.412;8.790;2023-09-30T14:50:20;16.48;;;9.20;;
68888;SDS011;55930;47.412;8.790;2023-09-30T14:53:40;20.73;;;10.23;;
68888;SDS011;55930;47.412;8.790;2023-09-30T14:57:01;16.25;;;9.32;;
68888;SDS011;55930;47.412;8.790;2023-09-30T15:00:21;16.88;;;9.80;;
68888;SDS011;55930;47.412;8.790;2023-09-30T15:03:46;17.10;;;9.05;;
68888;SDS011;55930;47.412;8.790;2023-09-30T15:07:07;16.42;;;9.38;;
68888;SDS011;55930;47.412;8.790;2023-09-30T15:10:27;15.57;;;9.18;;
68888;SDS011;55930;47.412;8.790;2023-09-30T15:13:48;17.52;;;9.90;;
68888;SDS011;55930;47.412;8.790;2023-09-30T15:17:10;18.45;;;9.50;;
68888;SDS011;55930;47.412;8.790;2023-09-30T15:20:37;17.92;;;10.00;;
68888;SDS011;55930;47.412;8.790;2023-09-30T15:23:58;16.98;;;10.20;;
68888;SDS011;55930;47.412;8.790;2023-09-30T15:27:19;18.25;;;9.35;;
68888;SDS011;55930;47.412;8.790;2023-09-30T15:30:42;17.20;;;9.30;;
68888;SDS011;55930;47.412;8.790;2023-09-30T15:34:02;15.25;;;8.63;;
68888;SDS011;55930;47.412;8.790;2023-09-30T15:37:22;17.30;;;9.80;;
68888;SDS011;55930;47.412;8.790;2023-09-30T15:41:19;16.17;;;9.15;;
68888;SDS011;55930;47.412;8.790;2023-09-30T15:44:31;17.63;;;9.32;;
68888;SDS011;55930;47.412;8.790;2023-09-30T15:47:52;16.38;;;9.77;;
68888;SDS011;55930;47.412;8.790;2023-09-30T15:51:12;15.38;;;8.43;;
68888;SDS011;55930;47.412;8.790;2023-09-30T15:54:33;16.98;;;8.55;;
68888;SDS011;55930;47.412;8.790;2023-09-30T15:57:53;15.90;;;8.43;;
68888;SDS011;55930;47.412;8.790;2023-09-30T16:01:14;16.05;;;8.80;;
68888;SDS011;55930;47.412;8.790;2023-09-30T16:04:34;14.63;;;8.38;;
68888;SDS011;55930;47.412;8.790;2023-09-30T16:07:54;14.40;;;8.60;;
68888;SDS011;55930;47.412;8.790;2023-09-30T16:11:15;15.90;;;8.73;;
68888;SDS011;55930;47.412;8.790;2023-09-30T16:14:38;16.67;;;9.10;;
68888;SDS011;55930;47.412;8.790;2023-09-30T16:17:59;16.20;;;9.18;;
68888;SDS011;55930;47.412;8.790;2023-09-30T16:21:19;15.57;;;8.48;;
68888;SDS011;55930;47.412;8.790;2023-09-30T16:24:39;15.82;;;8.52;;
68888;SDS011;55930;47.412;8.790;2023-09-30T16:28:00;17.70;;;8.38;;
68888;SDS011;55930;47.412;8.790;2023-09-30T16:31:20;16.80;;;8.80;;
68888;SDS011;55930;47.412;8.790;2023-09-30T16:34:41;16.15;;;8.30;;
68888;SDS011;55930;47.412;8.790;2023-09-30T16:38:01;14.75;;;7.90;;
68888;SDS011;55930;47.412;8.790;2023-09-30T16:41:21;15.65;;;8.35;;
68888;SDS011;55930;47.412;8.790;2023-09-30T16:44:43;15.68;;;9.38;;
68888;SDS011;55930;47.412;8.790;2023-09-30T16:48:05;17.58;;;8.38;;
68888;SDS011;55930;47.412;8.790;2023-09-30T16:51:25;16.45;;;8.48;;
68888;SDS011;55930;47.412;8.790;2023-09-30T16:54:45;16.83;;;8.65;;
68888;SDS011;55930;47.412;8.790;2023-09-30T16:58:06;17.50;;;8.55;;
68888;SDS011;55930;47.412;8.790;2023-09-30T17:01:27;17.92;;;8.43;;
68888;SDS011;55930;47.412;8.790;2023-09-30T17:04:48;15.43;;;7.60;;
68888;SDS011;55930;47.412;8.790;2023-09-30T17:08:11;15.48;;;7.97;;
68888;SDS011;55930;47.412;8.790;2023-09-30T17:11:32;15.23;;;8.05;;
68888;SDS011;55930;47.412;8.790;2023-09-30T17:14:52;17.15;;;8.20;;
68888;SDS011;55930;47.412;8.790;2023-09-30T17:18:15;13.02;;;7.53;;
68888;SDS011;55930;47.412;8.790;2023-09-30T17:21:38;14.82;;;7.80;;
68888;SDS011;55930;47.412;8.790;2023-09-30T17:24:59;13.75;;;7.65;;
68888;SDS011;55930;47.412;8.790;2023-09-30T17:28:19;14.50;;;7.75;;
68888;SDS011;55930;47.412;8.790;2023-09-30T17:31:43;16.40;;;8.10;;
68888;SDS011;55930;47.412;8.790;2023-09-30T17:35:03;16.95;;;8.50;;
68888;SDS011;55930;47.412;8.790;2023-09-30T17:38:24;14.30;;;7.55;;
68888;SDS011;55930;47.412;8.790;2023-09-30T17:41:44;15.20;;;8.88;;
68888;SDS011;55930;47.412;8.790;2023-09-30T17:45:05;15.32;;;7.90;;
68888;SDS011;55930;47.412;8.790;2023-09-30T17:48:26;16.75;;;8.73;;
68888;SDS011;55930;47.412;8.790;2023-09-30T17:51:51;15.45;;;8.05;;
68888;SDS011;55930;47.412;8.790;2023-09-30T17:55:11;18.27;;;8.55;;
68888;SDS011;55930;47.412;8.790;2023-09-30T17:58:34;16.30;;;8.25;;
68888;SDS011;55930;47.412;8.790;2023-09-30T18:05:15;16.27;;;7.87;;
68888;SDS011;55930;47.412;8.790;2023-09-30T18:08:36;20.92;;;8.15;;
68888;SDS011;55930;47.412;8.790;2023-09-30T18:12:02;21.55;;;8.18;;
68888;SDS011;55930;47.412;8.790;2023-09-30T18:15:23;20.52;;;9.07;;
68888;SDS011;55930;47.412;8.790;2023-09-30T18:22:04;17.67;;;7.80;;
68888;SDS011;55930;47.412;8.790;2023-09-30T18:28:44;19.30;;;9.80;;
68888;SDS011;55930;47.412;8.790;2023-09-30T18:35:25;17.53;;;8.73;;
68888;SDS011;55930;47.412;8.790;2023-09-30T18:42:06;16.43;;;8.13;;
68888;SDS011;55930;47.412;8.790;2023-09-30T18:48:47;14.63;;;7.93;;
68888;SDS011;55930;47.412;8.790;2023-09-30T18:52:07;19.57;;;8.27;;
68888;SDS011;55930;47.412;8.790;2023-09-30T18:58:48;17.90;;;8.60;;
68888;SDS011;55930;47.412;8.790;2023-09-30T19:05:29;16.00;;;7.97;;
68888;SDS011;55930;47.412;8.790;2023-09-30T19:08:50;16.98;;;8.30;;
68888;SDS011;55930;47.412;8.790;2023-09-30T19:12:11;17.77;;;8.20;;
68888;SDS011;55930;47.412;8.790;2023-09-30T19:15:31;17.83;;;9.52;;
68888;SDS011;55930;47.412;8.790;2023-09-30T19:22:12;17.83;;;8.43;;
68888;SDS011;55930;47.412;8.790;2023-09-30T19:25:32;19.57;;;8.47;;
68888;SDS011;55930;47.412;8.790;2023-09-30T19:32:13;20.30;;;10.03;;
68888;SDS011;55930;47.412;8.790;2023-09-30T19:35:34;18.02;;;8.57;;
68888;SDS011;55930;47.412;8.790;2023-09-30T19:38:54;17.73;;;9.65;;
68888;SDS011;55930;47.412;8.790;2023-09-30T19:42:15;17.97;;;8.13;;
68888;SDS011;55930;47.412;8.790;2023-09-30T19:45:35;19.40;;;8.67;;
68888;SDS011;55930;47.412;8.790;2023-09-30T19:52:16;15.18;;;8.40;;
68888;SDS011;55930;47.412;8.790;2023-09-30T19:55:37;17.85;;;7.97;;
68888;SDS011;55930;47.412;8.790;2023-09-30T19:58:57;18.17;;;8.15;;
68888;SDS011;55930;47.412;8.790;2023-09-30T20:02:17;16.60;;;8.93;;
68888;SDS011;55930;47.412;8.790;2023-09-30T20:05:39;15.93;;;8.63;;
68888;SDS011;55930;47.412;8.790;2023-09-30T20:12:21;18.20;;;8.40;;
68888;SDS011;55930;47.412;8.790;2023-09-30T20:15:42;20.70;;;10.55;;
68888;SDS011;55930;47.412;8.790;2023-09-30T20:19:02;17.13;;;8.80;;
68888;SDS011;55930;47.412;8.790;2023-09-30T20:22:23;17.42;;;8.77;;
68888;SDS011;55930;47.412;8.790;2023-09-30T20:25:43;16.40;;;8.13;;
68888;SDS011;55930;47.412;8.790;2023-09-30T20:29:06;16.55;;;8.43;;
68888;SDS011;55930;47.412;8.790;2023-09-30T20:32:27;19.92;;;9.88;;
68888;SDS011;55930;47.412;8.790;2023-09-30T20:35:47;22.88;;;9.23;;
68888;SDS011;55930;47.412;8.790;2023-09-30T20:39:11;16.17;;;8.55;;
68888;SDS011;55930;47.412;8.790;2023-09-30T20:42:33;16.98;;;8.80;;
68888;SDS011;55930;47.412;8.790;2023-09-30T20:45:55;16.05;;;8.73;;
68888;SDS011;55930;47.412;8.790;2023-09-30T20:49:15;18.97;;;9.50;;
68888;SDS011;55930;47.412;8.790;2023-09-30T20:52:37;16.58;;;8.38;;
68888;SDS011;55930;47.412;8.790;2023-09-30T20:55:58;15.53;;;7.83;;
68888;SDS011;55930;47.412;8.790;2023-09-30T20:59:19;20.58;;;8.75;;
68888;SDS011;55930;47.412;8.790;2023-09-30T21:02:40;16.03;;;7.47;;
68888;SDS011;55930;47.412;8.790;2023-09-30T21:06:04;17.38;;;8.63;;
68888;SDS011;55930;47.412;8.790;2023-09-30T21:09:26;16.20;;;8.05;;
68888;SDS011;55930;47.412;8.790;2023-09-30T21:12:46;17.10;;;8.33;;
68888;SDS011;55930;47.412;8.790;2023-09-30T21:16:07;17.27;;;8.93;;
68888;SDS011;55930;47.412;8.790;2023-09-30T21:19:29;17.17;;;8.15;;
68888;SDS011;55930;47.412;8.790;2023-09-30T21:22:49;15.53;;;7.53;;
68888;SDS011;55930;47.412;8.790;2023-09-30T21:26:10;16.60;;;8.00;;
68888;SDS011;55930;47.412;8.790;2023-09-30T21:29:32;18.05;;;8.35;;
68888;SDS011;55930;47.412;8.790;2023-09-30T21:32:53;19.20;;;8.40;;
68888;SDS011;55930;47.412;8.790;2023-09-30T21:36:13;18.10;;;7.50;;
68888;SDS011;55930;47.412;8.790;2023-09-30T21:39:37;15.23;;;7.72;;
68888;SDS011;55930;47.412;8.790;2023-09-30T21:42:57;18.00;;;8.37;;
68888;SDS011;55930;47.412;8.790;2023-09-30T21:46:17;19.00;;;9.25;;
68888;SDS011;55930;47.412;8.790;2023-09-30T21:49:38;18.73;;;8.60;;
68888;SDS011;55930;47.412;8.790;2023-09-30T21:52:58;15.95;;;8.63;;
68888;SDS011;55930;47.412;8.790;2023-09-30T21:56:19;19.03;;;8.43;;
68888;SDS011;55930;47.412;8.790;2023-09-30T21:59:39;21.13;;;8.52;;
68888;SDS011;55930;47.412;8.790;2023-09-30T22:03:01;19.13;;;8.73;;
68888;SDS011;55930;47.412;8.790;2023-09-30T22:06:21;16.57;;;8.57;;
68888;SDS011;55930;47.412;8.790;2023-09-30T22:09:41;20.43;;;8.43;;
68888;SDS011;55930;47.412;8.790;2023-09-30T22:13:02;21.10;;;9.67;;
68888;SDS011;55930;47.412;8.790;2023-09-30T22:16:22;20.65;;;9.13;;
68888;SDS011;55930;47.412;8.790;2023-09-30T22:19:43;17.42;;;8.93;;
68888;SDS011;55930;47.412;8.790;2023-09-30T22:23:05;20.48;;;8.27;;